Newfoundland, Kentucky
Current Conditions -  °F | °C
As of 7:30 AM on Friday 21 Nov 2014 (Local Time) from KSYM Reporting Station
Clear Clear  
Wind Chill: 19°   Ceiling: Unl
Heat Index: 19°   Visibility: 8mi
Dew Point: 14°   Wind: 0mph
Humidity: 80%   Direction: NA
Pressure: 30.47"   Gusts: NA
Location:  38.1397°N, 83.158°W
Report Text: KSYM 211230Z AUTO 00000KT 8SM CLR M07/M10 A3047 RMK AO2
Loading
Personal Weather Stations






























Interactive Weather Map New forecast layout! Learn more

10-Day Weather Forecast

Advertisements
Track Severe Weather on mobile